sensor_id;sensor_type;location;lat;lon;timestamp;P1;durP1;ratioP1;P2;durP2;ratioP2
65581;SDS011;52231;40.090;18.348;2022-07-12T00:00:54;3.03;;;2.03;;
65581;SDS011;52231;40.090;18.348;2022-07-12T00:03:22;4.93;;;2.13;;
65581;SDS011;52231;40.090;18.348;2022-07-12T00:05:51;4.95;;;2.47;;
65581;SDS011;52231;40.090;18.348;2022-07-12T00:08:19;5.18;;;2.40;;
65581;SDS011;52231;40.090;18.348;2022-07-12T00:13:16;6.28;;;2.42;;
65581;SDS011;52231;40.090;18.348;2022-07-12T00:15:45;5.25;;;2.25;;
65581;SDS011;52231;40.090;18.348;2022-07-12T00:18:13;5.97;;;2.50;;
65581;SDS011;52231;40.090;18.348;2022-07-12T00:20:41;4.03;;;2.35;;
65581;SDS011;52231;40.090;18.348;2022-07-12T00:23:09;6.28;;;2.65;;
65581;SDS011;52231;40.090;18.348;2022-07-12T00:25:37;5.53;;;2.45;;
65581;SDS011;52231;40.090;18.348;2022-07-12T00:28:06;5.20;;;2.42;;
65581;SDS011;52231;40.090;18.348;2022-07-12T00:30:34;6.13;;;2.28;;
65581;SDS011;52231;40.090;18.348;2022-07-12T00:33:02;7.05;;;2.35;;
65581;SDS011;52231;40.090;18.348;2022-07-12T00:35:30;4.28;;;2.22;;
65581;SDS011;52231;40.090;18.348;2022-07-12T00:37:59;5.68;;;2.17;;
65581;SDS011;52231;40.090;18.348;2022-07-12T00:40:27;3.53;;;2.03;;
65581;SDS011;52231;40.090;18.348;2022-07-12T00:42:55;7.03;;;2.20;;
65581;SDS011;52231;40.090;18.348;2022-07-12T00:47:52;4.30;;;2.30;;
65581;SDS011;52231;40.090;18.348;2022-07-12T00:50:21;7.45;;;2.42;;
65581;SDS011;52231;40.090;18.348;2022-07-12T00:52:51;5.63;;;2.42;;
65581;SDS011;52231;40.090;18.348;2022-07-12T00:55:40;4.53;;;2.20;;
65581;SDS011;52231;40.090;18.348;2022-07-12T00:58:08;5.35;;;2.28;;
65581;SDS011;52231;40.090;18.348;2022-07-12T01:00:36;6.43;;;2.30;;
65581;SDS011;52231;40.090;18.348;2022-07-12T01:03:05;4.25;;;2.20;;
65581;SDS011;52231;40.090;18.348;2022-07-12T01:05:33;6.18;;;2.30;;
65581;SDS011;52231;40.090;18.348;2022-07-12T01:08:02;6.07;;;2.20;;
65581;SDS011;52231;40.090;18.348;2022-07-12T01:10:31;5.80;;;2.42;;
65581;SDS011;52231;40.090;18.348;2022-07-12T01:13:00;4.10;;;2.20;;
65581;SDS011;52231;40.090;18.348;2022-07-12T01:15:28;4.10;;;2.42;;
65581;SDS011;52231;40.090;18.348;2022-07-12T01:17:58;5.60;;;2.70;;
65581;SDS011;52231;40.090;18.348;2022-07-12T01:20:27;5.75;;;2.35;;
65581;SDS011;52231;40.090;18.348;2022-07-12T01:22:57;4.72;;;2.10;;
65581;SDS011;52231;40.090;18.348;2022-07-12T01:25:26;7.82;;;2.30;;
65581;SDS011;52231;40.090;18.348;2022-07-12T01:27:54;6.65;;;2.50;;
65581;SDS011;52231;40.090;18.348;2022-07-12T01:30:22;7.13;;;2.25;;
65581;SDS011;52231;40.090;18.348;2022-07-12T01:32:51;5.35;;;2.58;;
65581;SDS011;52231;40.090;18.348;2022-07-12T01:35:20;6.80;;;2.42;;
65581;SDS011;52231;40.090;18.348;2022-07-12T01:37:49;7.97;;;2.20;;
65581;SDS011;52231;40.090;18.348;2022-07-12T01:42:45;6.72;;;2.70;;
65581;SDS011;52231;40.090;18.348;2022-07-12T01:45:34;5.53;;;2.20;;
65581;SDS011;52231;40.090;18.348;2022-07-12T01:50:31;3.45;;;2.20;;
65581;SDS011;52231;40.090;18.348;2022-07-12T01:52:59;6.72;;;2.30;;
65581;SDS011;52231;40.090;18.348;2022-07-12T01:55:28;5.15;;;2.33;;
65581;SDS011;52231;40.090;18.348;2022-07-12T01:57:59;5.35;;;2.20;;
65581;SDS011;52231;40.090;18.348;2022-07-12T02:00:28;4.20;;;1.90;;
65581;SDS011;52231;40.090;18.348;2022-07-12T02:02:56;8.00;;;2.33;;
65581;SDS011;52231;40.090;18.348;2022-07-12T02:05:24;6.32;;;2.47;;
65581;SDS011;52231;40.090;18.348;2022-07-12T02:07:53;6.10;;;2.25;;
65581;SDS011;52231;40.090;18.348;2022-07-12T02:10:22;4.88;;;2.17;;
65581;SDS011;52231;40.090;18.348;2022-07-12T02:15:18;3.67;;;2.00;;
65581;SDS011;52231;40.090;18.348;2022-07-12T02:17:46;6.00;;;2.20;;
65581;SDS011;52231;40.090;18.348;2022-07-12T02:20:15;6.13;;;2.20;;
65581;SDS011;52231;40.090;18.348;2022-07-12T02:22:43;4.45;;;2.35;;
65581;SDS011;52231;40.090;18.348;2022-07-12T02:27:39;3.92;;;2.10;;
65581;SDS011;52231;40.090;18.348;2022-07-12T02:30:09;6.20;;;2.40;;
65581;SDS011;52231;40.090;18.348;2022-07-12T02:32:38;3.85;;;2.13;;
65581;SDS011;52231;40.090;18.348;2022-07-12T02:35:06;7.88;;;2.30;;
65581;SDS011;52231;40.090;18.348;2022-07-12T02:37:35;7.20;;;2.20;;
65581;SDS011;52231;40.090;18.348;2022-07-12T02:42:50;5.82;;;2.20;;
65581;SDS011;52231;40.090;18.348;2022-07-12T02:45:19;4.47;;;2.20;;
65581;SDS011;52231;40.090;18.348;2022-07-12T02:50:15;6.20;;;2.10;;
65581;SDS011;52231;40.090;18.348;2022-07-12T02:52:43;5.45;;;2.35;;
65581;SDS011;52231;40.090;18.348;2022-07-12T02:55:12;4.63;;;1.98;;
65581;SDS011;52231;40.090;18.348;2022-07-12T02:57:40;5.57;;;2.60;;
65581;SDS011;52231;40.090;18.348;2022-07-12T03:00:08;5.18;;;2.35;;
65581;SDS011;52231;40.090;18.348;2022-07-12T03:02:37;6.15;;;2.38;;
65581;SDS011;52231;40.090;18.348;2022-07-12T03:05:05;5.65;;;2.40;;
65581;SDS011;52231;40.090;18.348;2022-07-12T03:07:34;7.05;;;2.65;;
65581;SDS011;52231;40.090;18.348;2022-07-12T03:10:03;4.05;;;2.08;;
65581;SDS011;52231;40.090;18.348;2022-07-12T03:12:32;7.03;;;2.40;;
65581;SDS011;52231;40.090;18.348;2022-07-12T03:15:01;6.20;;;2.35;;
65581;SDS011;52231;40.090;18.348;2022-07-12T03:19:57;5.75;;;2.28;;
65581;SDS011;52231;40.090;18.348;2022-07-12T03:22:26;6.03;;;2.75;;
65581;SDS011;52231;40.090;18.348;2022-07-12T03:27:23;6.68;;;2.13;;
65581;SDS011;52231;40.090;18.348;2022-07-12T03:29:52;4.13;;;2.28;;
65581;SDS011;52231;40.090;18.348;2022-07-12T03:32:21;6.82;;;2.22;;
65581;SDS011;52231;40.090;18.348;2022-07-12T03:34:49;6.43;;;2.47;;
65581;SDS011;52231;40.090;18.348;2022-07-12T03:37:17;6.65;;;2.60;;
65581;SDS011;52231;40.090;18.348;2022-07-12T03:39:45;4.47;;;2.30;;
65581;SDS011;52231;40.090;18.348;2022-07-12T03:42:14;4.38;;;2.00;;
65581;SDS011;52231;40.090;18.348;2022-07-12T03:47:11;11.98;;;2.47;;
65581;SDS011;52231;40.090;18.348;2022-07-12T03:52:07;6.90;;;2.17;;
65581;SDS011;52231;40.090;18.348;2022-07-12T03:54:35;7.65;;;2.55;;
65581;SDS011;52231;40.090;18.348;2022-07-12T03:57:04;3.97;;;2.10;;
65581;SDS011;52231;40.090;18.348;2022-07-12T03:59:42;5.55;;;2.42;;
65581;SDS011;52231;40.090;18.348;2022-07-12T04:02:11;7.18;;;2.47;;
65581;SDS011;52231;40.090;18.348;2022-07-12T04:04:40;5.32;;;2.15;;
65581;SDS011;52231;40.090;18.348;2022-07-12T04:07:09;6.25;;;2.47;;
65581;SDS011;52231;40.090;18.348;2022-07-12T04:09:37;8.18;;;2.58;;
65581;SDS011;52231;40.090;18.348;2022-07-12T04:14:34;5.82;;;2.30;;
65581;SDS011;52231;40.090;18.348;2022-07-12T04:17:03;4.35;;;2.08;;
65581;SDS011;52231;40.090;18.348;2022-07-12T04:19:33;7.47;;;2.30;;
65581;SDS011;52231;40.090;18.348;2022-07-12T04:22:02;7.18;;;2.65;;
65581;SDS011;52231;40.090;18.348;2022-07-12T04:24:31;9.18;;;2.17;;
65581;SDS011;52231;40.090;18.348;2022-07-12T04:27:00;6.88;;;2.35;;
65581;SDS011;52231;40.090;18.348;2022-07-12T04:29:28;8.55;;;1.90;;
65581;SDS011;52231;40.090;18.348;2022-07-12T04:31:59;4.55;;;1.58;;
65581;SDS011;52231;40.090;18.348;2022-07-12T04:34:27;8.10;;;1.83;;
65581;SDS011;52231;40.090;18.348;2022-07-12T04:39:24;4.55;;;1.50;;
65581;SDS011;52231;40.090;18.348;2022-07-12T04:41:53;6.22;;;1.80;;
65581;SDS011;52231;40.090;18.348;2022-07-12T04:44:22;4.32;;;1.50;;
65581;SDS011;52231;40.090;18.348;2022-07-12T04:46:53;4.45;;;1.63;;
65581;SDS011;52231;40.090;18.348;2022-07-12T04:49:21;6.53;;;1.92;;
65581;SDS011;52231;40.090;18.348;2022-07-12T04:51:49;7.13;;;1.70;;
65581;SDS011;52231;40.090;18.348;2022-07-12T04:56:45;11.55;;;1.90;;
65581;SDS011;52231;40.090;18.348;2022-07-12T04:59:14;9.48;;;2.00;;
65581;SDS011;52231;40.090;18.348;2022-07-12T05:01:42;5.38;;;1.85;;
65581;SDS011;52231;40.090;18.348;2022-07-12T05:04:13;5.63;;;1.77;;
65581;SDS011;52231;40.090;18.348;2022-07-12T05:06:41;7.10;;;1.90;;
65581;SDS011;52231;40.090;18.348;2022-07-12T05:09:09;8.55;;;1.70;;
65581;SDS011;52231;40.090;18.348;2022-07-12T05:11:38;6.85;;;2.10;;
65581;SDS011;52231;40.090;18.348;2022-07-12T05:14:07;7.05;;;1.83;;
65581;SDS011;52231;40.090;18.348;2022-07-12T05:16:38;7.63;;;2.10;;
65581;SDS011;52231;40.090;18.348;2022-07-12T05:21:34;5.80;;;1.65;;
65581;SDS011;52231;40.090;18.348;2022-07-12T05:24:02;6.75;;;1.83;;
65581;SDS011;52231;40.090;18.348;2022-07-12T05:26:31;10.80;;;1.90;;
65581;SDS011;52231;40.090;18.348;2022-07-12T05:28:59;6.50;;;1.80;;
65581;SDS011;52231;40.090;18.348;2022-07-12T05:31:27;3.28;;;1.25;;
65581;SDS011;52231;40.090;18.348;2022-07-12T05:33:56;7.35;;;1.60;;
65581;SDS011;52231;40.090;18.348;2022-07-12T05:36:24;7.78;;;1.90;;
65581;SDS011;52231;40.090;18.348;2022-07-12T05:38:53;5.05;;;1.48;;
65581;SDS011;52231;40.090;18.348;2022-07-12T05:41:21;4.63;;;1.65;;
65581;SDS011;52231;40.090;18.348;2022-07-12T05:43:49;7.25;;;1.90;;
65581;SDS011;52231;40.090;18.348;2022-07-12T05:46:18;5.43;;;1.70;;
65581;SDS011;52231;40.090;18.348;2022-07-12T05:48:46;10.48;;;2.55;;
65581;SDS011;52231;40.090;18.348;2022-07-12T05:51:16;9.95;;;3.30;;
65581;SDS011;52231;40.090;18.348;2022-07-12T05:54:02;8.18;;;2.28;;
65581;SDS011;52231;40.090;18.348;2022-07-12T05:56:31;10.73;;;1.98;;
65581;SDS011;52231;40.090;18.348;2022-07-12T05:59:00;3.55;;;1.50;;
65581;SDS011;52231;40.090;18.348;2022-07-12T06:01:28;7.75;;;2.20;;
65581;SDS011;52231;40.090;18.348;2022-07-12T06:03:57;8.95;;;1.60;;
65581;SDS011;52231;40.090;18.348;2022-07-12T06:06:28;7.72;;;1.80;;
65581;SDS011;52231;40.090;18.348;2022-07-12T06:09:17;4.60;;;1.55;;
65581;SDS011;52231;40.090;18.348;2022-07-12T06:11:46;6.25;;;1.67;;
65581;SDS011;52231;40.090;18.348;2022-07-12T06:14:15;5.00;;;1.65;;
65581;SDS011;52231;40.090;18.348;2022-07-12T06:16:43;4.07;;;1.63;;
65581;SDS011;52231;40.090;18.348;2022-07-12T06:19:11;5.55;;;1.35;;
65581;SDS011;52231;40.090;18.348;2022-07-12T06:21:41;5.82;;;1.50;;
65581;SDS011;52231;40.090;18.348;2022-07-12T06:24:09;7.10;;;1.58;;
65581;SDS011;52231;40.090;18.348;2022-07-12T06:26:38;4.78;;;1.38;;
65581;SDS011;52231;40.090;18.348;2022-07-12T06:29:07;6.25;;;1.70;;
65581;SDS011;52231;40.090;18.348;2022-07-12T06:31:35;4.97;;;1.60;;
65581;SDS011;52231;40.090;18.348;2022-07-12T06:34:04;5.80;;;1.52;;
65581;SDS011;52231;40.090;18.348;2022-07-12T06:36:32;6.43;;;2.10;;
65581;SDS011;52231;40.090;18.348;2022-07-12T06:39:01;3.53;;;1.10;;
65581;SDS011;52231;40.090;18.348;2022-07-12T06:41:30;4.13;;;1.10;;
65581;SDS011;52231;40.090;18.348;2022-07-12T06:43:58;3.63;;;1.20;;
65581;SDS011;52231;40.090;18.348;2022-07-12T06:46:27;3.28;;;1.10;;
65581;SDS011;52231;40.090;18.348;2022-07-12T06:48:55;3.50;;;1.35;;
65581;SDS011;52231;40.090;18.348;2022-07-12T06:51:23;3.22;;;1.10;;
65581;SDS011;52231;40.090;18.348;2022-07-12T06:53:52;5.72;;;2.20;;
65581;SDS011;52231;40.090;18.348;2022-07-12T06:56:20;4.50;;;1.35;;
65581;SDS011;52231;40.090;18.348;2022-07-12T06:58:50;2.45;;;1.10;;
65581;SDS011;52231;40.090;18.348;2022-07-12T07:01:18;2.55;;;1.02;;
65581;SDS011;52231;40.090;18.348;2022-07-12T07:03:46;4.50;;;1.30;;
65581;SDS011;52231;40.090;18.348;2022-07-12T07:06:15;2.53;;;1.08;;
65581;SDS011;52231;40.090;18.348;2022-07-12T07:08:43;3.08;;;1.10;;
65581;SDS011;52231;40.090;18.348;2022-07-12T07:11:12;3.78;;;1.20;;
65581;SDS011;52231;40.090;18.348;2022-07-12T07:13:40;5.35;;;1.27;;
65581;SDS011;52231;40.090;18.348;2022-07-12T07:16:12;4.10;;;1.55;;
65581;SDS011;52231;40.090;18.348;2022-07-12T07:18:59;4.47;;;1.27;;
65581;SDS011;52231;40.090;18.348;2022-07-12T07:21:28;5.38;;;1.40;;
65581;SDS011;52231;40.090;18.348;2022-07-12T07:23:56;2.97;;;1.23;;
65581;SDS011;52231;40.090;18.348;2022-07-12T07:26:25;4.60;;;1.40;;
65581;SDS011;52231;40.090;18.348;2022-07-12T07:28:53;3.47;;;1.20;;
65581;SDS011;52231;40.090;18.348;2022-07-12T07:31:40;2.10;;;1.30;;
65581;SDS011;52231;40.090;18.348;2022-07-12T07:34:09;2.90;;;1.55;;
65581;SDS011;52231;40.090;18.348;2022-07-12T07:36:38;3.42;;;1.30;;
65581;SDS011;52231;40.090;18.348;2022-07-12T07:39:06;3.47;;;1.35;;
65581;SDS011;52231;40.090;18.348;2022-07-12T07:41:34;3.95;;;1.13;;
65581;SDS011;52231;40.090;18.348;2022-07-12T07:44:03;2.15;;;1.30;;
65581;SDS011;52231;40.090;18.348;2022-07-12T07:46:31;3.53;;;1.38;;
65581;SDS011;52231;40.090;18.348;2022-07-12T07:48:59;2.22;;;1.15;;
65581;SDS011;52231;40.090;18.348;2022-07-12T07:51:28;2.83;;;1.15;;
65581;SDS011;52231;40.090;18.348;2022-07-12T07:53:56;2.35;;;1.20;;
65581;SDS011;52231;40.090;18.348;2022-07-12T07:56:24;1.83;;;1.10;;
65581;SDS011;52231;40.090;18.348;2022-07-12T07:58:52;2.70;;;1.10;;
65581;SDS011;52231;40.090;18.348;2022-07-12T08:01:21;4.97;;;1.27;;
65581;SDS011;52231;40.090;18.348;2022-07-12T08:04:09;4.32;;;1.20;;
65581;SDS011;52231;40.090;18.348;2022-07-12T08:06:39;3.83;;;1.10;;
65581;SDS011;52231;40.090;18.348;2022-07-12T08:09:08;3.53;;;1.10;;
65581;SDS011;52231;40.090;18.348;2022-07-12T08:11:39;3.30;;;1.30;;
65581;SDS011;52231;40.090;18.348;2022-07-12T08:14:08;3.65;;;1.30;;
65581;SDS011;52231;40.090;18.348;2022-07-12T08:16:37;5.07;;;1.80;;
65581;SDS011;52231;40.090;18.348;2022-07-12T08:19:05;2.78;;;1.05;;
65581;SDS011;52231;40.090;18.348;2022-07-12T08:21:34;3.70;;;1.48;;
65581;SDS011;52231;40.090;18.348;2022-07-12T08:24:02;3.72;;;1.13;;
65581;SDS011;52231;40.090;18.348;2022-07-12T08:26:31;3.33;;;1.40;;
65581;SDS011;52231;40.090;18.348;2022-07-12T08:28:59;1.90;;;0.88;;
65581;SDS011;52231;40.090;18.348;2022-07-12T08:31:28;1.10;;;1.00;;
65581;SDS011;52231;40.090;18.348;2022-07-12T08:33:56;1.67;;;1.10;;
65581;SDS011;52231;40.090;18.348;2022-07-12T08:36:24;2.65;;;1.13;;
65581;SDS011;52231;40.090;18.348;2022-07-12T08:38:54;2.30;;;1.10;;
65581;SDS011;52231;40.090;18.348;2022-07-12T08:41:23;2.10;;;0.95;;
65581;SDS011;52231;40.090;18.348;2022-07-12T08:43:52;3.22;;;1.15;;
65581;SDS011;52231;40.090;18.348;2022-07-12T08:46:21;3.05;;;1.10;;
65581;SDS011;52231;40.090;18.348;2022-07-12T08:48:50;1.52;;;1.00;;
65581;SDS011;52231;40.090;18.348;2022-07-12T08:51:19;3.00;;;1.30;;
65581;SDS011;52231;40.090;18.348;2022-07-12T08:53:57;2.22;;;1.10;;
65581;SDS011;52231;40.090;18.348;2022-07-12T08:56:39;4.10;;;1.15;;
65581;SDS011;52231;40.090;18.348;2022-07-12T08:59:15;3.58;;;1.20;;
65581;SDS011;52231;40.090;18.348;2022-07-12T09:01:52;1.98;;;1.02;;
65581;SDS011;52231;40.090;18.348;2022-07-12T09:04:25;2.60;;;0.98;;
65581;SDS011;52231;40.090;18.348;2022-07-12T09:06:57;2.13;;;1.10;;
65581;SDS011;52231;40.090;18.348;2022-07-12T09:09:44;4.35;;;1.27;;
65581;SDS011;52231;40.090;18.348;2022-07-12T09:12:22;3.63;;;1.00;;
65581;SDS011;52231;40.090;18.348;2022-07-12T09:14:53;2.13;;;1.00;;
65581;SDS011;52231;40.090;18.348;2022-07-12T09:17:21;3.28;;;1.15;;
65581;SDS011;52231;40.090;18.348;2022-07-12T09:19:54;3.28;;;1.15;;
65581;SDS011;52231;40.090;18.348;2022-07-12T09:22:24;2.10;;;0.90;;
65581;SDS011;52231;40.090;18.348;2022-07-12T09:24:55;1.23;;;0.95;;
65581;SDS011;52231;40.090;18.348;2022-07-12T09:27:26;2.53;;;1.10;;
65581;SDS011;52231;40.090;18.348;2022-07-12T09:29:54;1.10;;;1.00;;
65581;SDS011;52231;40.090;18.348;2022-07-12T09:32:25;2.60;;;0.93;;
65581;SDS011;52231;40.090;18.348;2022-07-12T09:35:12;2.38;;;1.10;;
65581;SDS011;52231;40.090;18.348;2022-07-12T09:38:08;0.90;;;0.82;;
65581;SDS011;52231;40.090;18.348;2022-07-12T09:40:39;3.17;;;1.00;;
65581;SDS011;52231;40.090;18.348;2022-07-12T09:43:09;2.05;;;1.00;;
65581;SDS011;52231;40.090;18.348;2022-07-12T09:45:39;0.95;;;0.93;;
65581;SDS011;52231;40.090;18.348;2022-07-12T09:48:09;2.58;;;1.00;;
65581;SDS011;52231;40.090;18.348;2022-07-12T09:50:39;1.98;;;1.00;;
65581;SDS011;52231;40.090;18.348;2022-07-12T09:53:08;1.70;;;0.93;;
65581;SDS011;52231;40.090;18.348;2022-07-12T09:55:38;2.65;;;1.00;;
65581;SDS011;52231;40.090;18.348;2022-07-12T09:58:08;2.53;;;1.10;;
65581;SDS011;52231;40.090;18.348;2022-07-12T10:00:40;3.70;;;1.20;;
65581;SDS011;52231;40.090;18.348;2022-07-12T10:03:09;1.58;;;1.17;;
65581;SDS011;52231;40.090;18.348;2022-07-12T10:05:40;1.75;;;0.75;;
65581;SDS011;52231;40.090;18.348;2022-07-12T10:08:29;2.00;;;1.00;;
65581;SDS011;52231;40.090;18.348;2022-07-12T10:10:58;3.60;;;1.30;;
65581;SDS011;52231;40.090;18.348;2022-07-12T10:13:27;4.97;;;1.13;;
65581;SDS011;52231;40.090;18.348;2022-07-12T10:15:58;1.20;;;1.00;;
65581;SDS011;52231;40.090;18.348;2022-07-12T10:18:47;3.42;;;1.00;;
65581;SDS011;52231;40.090;18.348;2022-07-12T10:21:19;1.65;;;1.10;;
65581;SDS011;52231;40.090;18.348;2022-07-12T10:30:11;3.08;;;0.77;;
65581;SDS011;52231;40.090;18.348;2022-07-12T10:32:44;5.05;;;1.00;;
65581;SDS011;52231;40.090;18.348;2022-07-12T10:35:17;1.15;;;1.00;;
65581;SDS011;52231;40.090;18.348;2022-07-12T10:41:15;1.70;;;1.10;;
65581;SDS011;52231;40.090;18.348;2022-07-12T10:44:05;2.30;;;1.00;;
65581;SDS011;52231;40.090;18.348;2022-07-12T10:46:33;2.60;;;1.13;;
65581;SDS011;52231;40.090;18.348;2022-07-12T10:49:22;3.03;;;1.10;;
65581;SDS011;52231;40.090;18.348;2022-07-12T10:54:41;3.10;;;1.20;;
65581;SDS011;52231;40.090;18.348;2022-07-12T10:57:37;1.67;;;1.02;;
65581;SDS011;52231;40.090;18.348;2022-07-12T11:00:08;4.00;;;1.20;;
65581;SDS011;52231;40.090;18.348;2022-07-12T11:02:37;2.13;;;0.90;;
65581;SDS011;52231;40.090;18.348;2022-07-12T11:05:07;1.20;;;0.90;;
65581;SDS011;52231;40.090;18.348;2022-07-12T11:07:36;5.50;;;1.27;;
65581;SDS011;52231;40.090;18.348;2022-07-12T11:10:05;2.45;;;1.08;;
65581;SDS011;52231;40.090;18.348;2022-07-12T11:12:34;1.73;;;1.00;;
65581;SDS011;52231;40.090;18.348;2022-07-12T11:15:03;2.75;;;1.10;;
65581;SDS011;52231;40.090;18.348;2022-07-12T11:17:32;2.05;;;0.98;;
65581;SDS011;52231;40.090;18.348;2022-07-12T11:20:10;1.67;;;1.08;;
65581;SDS011;52231;40.090;18.348;2022-07-12T11:22:41;5.45;;;1.10;;
65581;SDS011;52231;40.090;18.348;2022-07-12T11:25:11;3.17;;;1.10;;
65581;SDS011;52231;40.090;18.348;2022-07-12T11:27:41;4.60;;;1.30;;
65581;SDS011;52231;40.090;18.348;2022-07-12T11:30:09;2.05;;;1.00;;
65581;SDS011;52231;40.090;18.348;2022-07-12T11:32:38;1.75;;;1.10;;
65581;SDS011;52231;40.090;18.348;2022-07-12T11:35:18;2.45;;;0.90;;
65581;SDS011;52231;40.090;18.348;2022-07-12T11:38:09;1.92;;;1.20;;
65581;SDS011;52231;40.090;18.348;2022-07-12T11:40:38;1.88;;;1.10;;
65581;SDS011;52231;40.090;18.348;2022-07-12T11:43:08;3.53;;;1.33;;
65581;SDS011;52231;40.090;18.348;2022-07-12T11:45:37;1.80;;;1.13;;
65581;SDS011;52231;40.090;18.348;2022-07-12T11:48:05;1.48;;;1.08;;
65581;SDS011;52231;40.090;18.348;2022-07-12T11:50:33;4.68;;;1.08;;
65581;SDS011;52231;40.090;18.348;2022-07-12T11:53:03;2.63;;;1.40;;
65581;SDS011;52231;40.090;18.348;2022-07-12T11:55:32;1.98;;;1.00;;
65581;SDS011;52231;40.090;18.348;2022-07-12T11:58:11;2.35;;;1.20;;
65581;SDS011;52231;40.090;18.348;2022-07-12T12:00:41;2.95;;;1.10;;
65581;SDS011;52231;40.090;18.348;2022-07-12T12:03:10;3.20;;;1.20;;
65581;SDS011;52231;40.090;18.348;2022-07-12T12:05:39;2.25;;;1.17;;
65581;SDS011;52231;40.090;18.348;2022-07-12T12:08:09;3.30;;;1.10;;
65581;SDS011;52231;40.090;18.348;2022-07-12T12:10:41;1.88;;;1.00;;
65581;SDS011;52231;40.090;18.348;2022-07-12T12:13:13;1.80;;;1.00;;
65581;SDS011;52231;40.090;18.348;2022-07-12T12:18:38;2.60;;;1.05;;
65581;SDS011;52231;40.090;18.348;2022-07-12T12:21:09;2.03;;;1.10;;
65581;SDS011;52231;40.090;18.348;2022-07-12T12:23:40;5.35;;;1.40;;
65581;SDS011;52231;40.090;18.348;2022-07-12T12:26:17;4.57;;;1.50;;
65581;SDS011;52231;40.090;18.348;2022-07-12T12:28:49;2.75;;;1.00;;
65581;SDS011;52231;40.090;18.348;2022-07-12T12:31:19;2.53;;;1.20;;
65581;SDS011;52231;40.090;18.348;2022-07-12T12:36:39;3.25;;;1.25;;
65581;SDS011;52231;40.090;18.348;2022-07-12T12:39:08;1.83;;;1.00;;
65581;SDS011;52231;40.090;18.348;2022-07-12T12:41:39;2.83;;;1.25;;
65581;SDS011;52231;40.090;18.348;2022-07-12T12:44:11;2.20;;;1.10;;
65581;SDS011;52231;40.090;18.348;2022-07-12T12:46:47;3.38;;;1.33;;
65581;SDS011;52231;40.090;18.348;2022-07-12T12:49:48;3.20;;;1.17;;
65581;SDS011;52231;40.090;18.348;2022-07-12T12:52:22;2.28;;;0.90;;
65581;SDS011;52231;40.090;18.348;2022-07-12T12:54:55;1.70;;;1.00;;
65581;SDS011;52231;40.090;18.348;2022-07-12T12:57:24;3.60;;;1.20;;
65581;SDS011;52231;40.090;18.348;2022-07-12T12:59:53;1.25;;;1.02;;
65581;SDS011;52231;40.090;18.348;2022-07-12T13:02:22;2.30;;;1.00;;
65581;SDS011;52231;40.090;18.348;2022-07-12T13:04:53;1.75;;;1.10;;
65581;SDS011;52231;40.090;18.348;2022-07-12T13:07:22;2.75;;;1.17;;
65581;SDS011;52231;40.090;18.348;2022-07-12T13:12:24;1.52;;;1.13;;
65581;SDS011;52231;40.090;18.348;2022-07-12T13:14:53;4.53;;;1.08;;
65581;SDS011;52231;40.090;18.348;2022-07-12T13:17:21;1.80;;;1.08;;
65581;SDS011;52231;40.090;18.348;2022-07-12T13:19:50;2.15;;;1.02;;
65581;SDS011;52231;40.090;18.348;2022-07-12T13:22:21;3.08;;;1.10;;
65581;SDS011;52231;40.090;18.348;2022-07-12T13:24:50;4.35;;;1.30;;
65581;SDS011;52231;40.090;18.348;2022-07-12T13:27:18;3.45;;;1.20;;
65581;SDS011;52231;40.090;18.348;2022-07-12T13:29:47;1.15;;;0.95;;
65581;SDS011;52231;40.090;18.348;2022-07-12T13:32:15;2.88;;;1.05;;
65581;SDS011;52231;40.090;18.348;2022-07-12T13:34:46;3.67;;;1.30;;
65581;SDS011;52231;40.090;18.348;2022-07-12T13:37:21;2.08;;;1.30;;
65581;SDS011;52231;40.090;18.348;2022-07-12T13:40:33;1.05;;;0.90;;
65581;SDS011;52231;40.090;18.348;2022-07-12T13:43:02;1.38;;;1.08;;
65581;SDS011;52231;40.090;18.348;2022-07-12T13:45:34;2.45;;;1.08;;
65581;SDS011;52231;40.090;18.348;2022-07-12T13:48:02;2.70;;;0.90;;
65581;SDS011;52231;40.090;18.348;2022-07-12T13:50:31;1.77;;;1.15;;
65581;SDS011;52231;40.090;18.348;2022-07-12T13:53:00;5.03;;;1.27;;
65581;SDS011;52231;40.090;18.348;2022-07-12T13:55:28;5.25;;;1.10;;
65581;SDS011;52231;40.090;18.348;2022-07-12T13:57:59;2.83;;;1.10;;
65581;SDS011;52231;40.090;18.348;2022-07-12T14:00:28;5.10;;;1.10;;
65581;SDS011;52231;40.090;18.348;2022-07-12T14:02:56;3.85;;;1.10;;
65581;SDS011;52231;40.090;18.348;2022-07-12T14:05:25;1.55;;;1.10;;
65581;SDS011;52231;40.090;18.348;2022-07-12T14:07:54;1.85;;;1.05;;
65581;SDS011;52231;40.090;18.348;2022-07-12T14:10:25;2.17;;;1.00;;
65581;SDS011;52231;40.090;18.348;2022-07-12T14:12:54;1.83;;;1.10;;
65581;SDS011;52231;40.090;18.348;2022-07-12T14:15:22;2.70;;;1.10;;
65581;SDS011;52231;40.090;18.348;2022-07-12T14:18:04;3.33;;;1.23;;
65581;SDS011;52231;40.090;18.348;2022-07-12T14:20:34;2.03;;;0.98;;
65581;SDS011;52231;40.090;18.348;2022-07-12T14:23:04;2.85;;;1.05;;
65581;SDS011;52231;40.090;18.348;2022-07-12T14:25:36;3.88;;;1.20;;
65581;SDS011;52231;40.090;18.348;2022-07-12T14:28:04;3.08;;;1.17;;
65581;SDS011;52231;40.090;18.348;2022-07-12T14:30:33;3.15;;;1.20;;
65581;SDS011;52231;40.090;18.348;2022-07-12T14:33:02;1.70;;;1.23;;
65581;SDS011;52231;40.090;18.348;2022-07-12T14:35:31;1.20;;;0.98;;
65581;SDS011;52231;40.090;18.348;2022-07-12T14:38:09;2.33;;;1.10;;
65581;SDS011;52231;40.090;18.348;2022-07-12T14:40:38;2.78;;;1.20;;
65581;SDS011;52231;40.090;18.348;2022-07-12T14:43:07;5.40;;;1.38;;
65581;SDS011;52231;40.090;18.348;2022-07-12T14:45:35;3.90;;;1.20;;
65581;SDS011;52231;40.090;18.348;2022-07-12T14:48:03;4.07;;;1.33;;
65581;SDS011;52231;40.090;18.348;2022-07-12T14:50:34;4.50;;;1.38;;
65581;SDS011;52231;40.090;18.348;2022-07-12T14:53:02;2.65;;;1.20;;
65581;SDS011;52231;40.090;18.348;2022-07-12T14:55:31;3.83;;;1.33;;
65581;SDS011;52231;40.090;18.348;2022-07-12T14:57:59;2.05;;;1.10;;
65581;SDS011;52231;40.090;18.348;2022-07-12T15:00:48;2.70;;;1.40;;
65581;SDS011;52231;40.090;18.348;2022-07-12T15:03:16;4.53;;;1.10;;
65581;SDS011;52231;40.090;18.348;2022-07-12T15:05:44;4.00;;;1.35;;
65581;SDS011;52231;40.090;18.348;2022-07-12T15:08:14;3.00;;;1.02;;
65581;SDS011;52231;40.090;18.348;2022-07-12T15:10:42;1.63;;;1.10;;
65581;SDS011;52231;40.090;18.348;2022-07-12T15:13:11;2.97;;;1.30;;
65581;SDS011;52231;40.090;18.348;2022-07-12T15:15:39;2.65;;;1.30;;
65581;SDS011;52231;40.090;18.348;2022-07-12T15:18:10;2.85;;;1.85;;
65581;SDS011;52231;40.090;18.348;2022-07-12T15:20:39;2.05;;;1.05;;
65581;SDS011;52231;40.090;18.348;2022-07-12T15:23:07;7.80;;;1.40;;
65581;SDS011;52231;40.090;18.348;2022-07-12T15:25:38;2.05;;;1.20;;
65581;SDS011;52231;40.090;18.348;2022-07-12T15:28:07;1.50;;;1.10;;
65581;SDS011;52231;40.090;18.348;2022-07-12T15:30:35;3.15;;;1.00;;
65581;SDS011;52231;40.090;18.348;2022-07-12T15:33:03;2.88;;;1.15;;
65581;SDS011;52231;40.090;18.348;2022-07-12T15:35:32;4.88;;;1.25;;
65581;SDS011;52231;40.090;18.348;2022-07-12T15:38:01;1.70;;;1.13;;
65581;SDS011;52231;40.090;18.348;2022-07-12T15:40:29;3.33;;;1.10;;
65581;SDS011;52231;40.090;18.348;2022-07-12T15:43:01;3.17;;;1.10;;
65581;SDS011;52231;40.090;18.348;2022-07-12T15:45:30;3.03;;;1.20;;
65581;SDS011;52231;40.090;18.348;2022-07-12T15:47:59;1.10;;;0.93;;
65581;SDS011;52231;40.090;18.348;2022-07-12T15:50:27;3.08;;;1.17;;
65581;SDS011;52231;40.090;18.348;2022-07-12T15:52:55;0.98;;;0.98;;